Time;durP1;ratioP1;P1;durP2;ratioP2;P2;SDS_P1;SDS_P2;PMS_P1;PMS_P2;Temp;Humidity;BMP_temperature;BMP_pressure;BME280_temperature;BME280_humidity;BME280_pressure;Samples;Min_cycle;Max_cycle;Signal;HPM_P1;HPM_P2
2022/03/25 04:00:34;;;;;;;93.80;33.88;;;2.80;99.90;;;;;;5955942;22;20061;-85
2022/03/25 04:02:59;;;;;;;132.68;37.75;;;2.80;99.90;;;;;;4999003;28;20038;-85
2022/03/25 04:05:25;;;;;;;168.65;38.10;;;2.70;99.90;;;;;;4999617;28;20042;-85
2022/03/25 04:07:50;;;;;;;345.30;39.13;;;2.70;99.90;;;;;;5000517;28;20173;-86
2022/03/25 04:10:18;;;;;;;388.58;40.08;;;2.60;99.90;;;;;;5016549;28;20045;-86
2022/03/25 04:12:44;;;;;;;203.98;38.20;;;2.50;99.90;;;;;;4979109;28;20042;-85
2022/03/25 04:15:11;;;;;;;303.67;41.40;;;2.40;99.90;;;;;;4979529;28;20046;-86
2022/03/25 04:17:37;;;;;;;265.33;38.90;;;2.40;99.90;;;;;;4980369;28;20050;-86
2022/03/25 04:20:06;;;;;;;327.40;41.40;;;2.40;99.90;;;;;;4979891;28;20042;-85
2022/03/25 04:22:32;;;;;;;460.08;43.25;;;2.40;99.90;;;;;;4997950;28;20431;-88
2022/03/25 04:24:58;;;;;;;567.65;47.00;;;2.50;99.90;;;;;;4980172;28;20041;-85
2022/03/25 04:27:23;;;;;;;648.72;50.00;;;2.40;99.90;;;;;;4964438;28;20054;-86
2022/03/25 04:29:49;;;;;;;171.13;36.45;;;2.30;99.90;;;;;;4979496;28;20478;-87
2022/03/25 04:32:15;;;;;;;223.43;39.90;;;2.30;99.90;;;;;;4979577;28;20097;-85
2022/03/25 04:34:40;;;;;;;651.38;52.58;;;2.30;99.90;;;;;;4963384;28;20038;-85
2022/03/25 04:37:07;;;;;;;440.33;42.75;;;2.40;99.90;;;;;;4962326;28;20446;-87
2022/03/25 04:39:32;;;;;;;561.13;47.13;;;2.30;99.90;;;;;;4997412;28;20110;-87
2022/03/25 04:41:58;;;;;;;412.33;43.20;;;2.30;99.90;;;;;;4997889;28;20114;-86
2022/03/25 04:44:24;;;;;;;309.80;40.25;;;2.40;99.90;;;;;;4980226;28;20034;-84
2022/03/25 04:46:50;;;;;;;547.33;47.28;;;2.40;99.90;;;;;;4997149;28;20399;-87
2022/03/25 04:49:15;;;;;;;473.70;43.60;;;2.40;99.90;;;;;;4997074;28;20050;-81
2022/03/25 04:51:41;;;;;;;350.58;40.53;;;2.40;99.90;;;;;;4979570;28;20026;-86
2022/03/25 04:54:07;;;;;;;416.17;41.53;;;2.40;99.90;;;;;;4979865;28;20046;-87
2022/03/25 04:56:34;;;;;;;529.65;48.15;;;2.40;99.90;;;;;;4980722;28;20089;-86
2022/03/25 04:59:00;;;;;;;371.30;40.97;;;2.30;99.90;;;;;;4978709;28;20130;-84
2022/03/25 05:01:26;;;;;;;355.13;41.08;;;2.40;99.90;;;;;;4979903;28;20085;-86
2022/03/25 05:03:52;;;;;;;542.63;49.15;;;2.30;99.90;;;;;;4963223;28;20050;-87
2022/03/25 05:06:17;;;;;;;398.55;43.38;;;2.30;99.90;;;;;;4964520;28;20030;-86
2022/03/25 05:08:43;;;;;;;541.85;46.63;;;2.30;99.90;;;;;;4979351;28;20046;-86
2022/03/25 05:11:23;;;;;;;587.00;50.33;;;2.30;99.90;;;;;;4979281;28;20038;-86
2022/03/25 05:13:50;;;;;;;566.00;47.75;;;2.40;99.90;;;;;;4962659;28;20100;-85
2022/03/25 05:16:15;;;;;;;573.70;48.83;;;2.40;99.90;;;;;;4980225;28;20455;-86
2022/03/25 05:18:41;;;;;;;223.30;37.92;;;2.30;99.90;;;;;;4996998;28;20114;-86
2022/03/25 05:21:07;;;;;;;184.35;36.40;;;2.40;99.90;;;;;;4996025;28;20078;-86
2022/03/25 05:23:33;;;;;;;491.98;47.03;;;2.40;99.90;;;;;;4962191;28;20426;-85
2022/03/25 05:25:58;;;;;;;161.95;36.95;;;2.40;99.90;;;;;;4977159;28;20038;-85
2022/03/25 05:28:25;;;;;;;191.93;36.35;;;2.40;99.90;;;;;;4978423;28;20054;-86
2022/03/25 05:30:51;;;;;;;270.33;38.50;;;2.40;99.90;;;;;;4978637;28;20058;-85
2022/03/25 05:33:17;;;;;;;226.90;37.10;;;2.40;99.90;;;;;;4978426;28;20053;-88
2022/03/25 05:35:43;;;;;;;191.50;35.97;;;2.40;99.90;;;;;;4978747;28;20363;-85
2022/03/25 05:38:09;;;;;;;116.57;33.35;;;2.40;99.90;;;;;;4962199;28;20426;-85
2022/03/25 05:40:34;;;;;;;142.68;32.30;;;2.40;99.90;;;;;;4963037;28;20047;-86
2022/03/25 05:43:00;;;;;;;219.80;35.67;;;2.40;99.90;;;;;;4961996;28;20046;-85
2022/03/25 05:45:26;;;;;;;157.15;34.50;;;2.40;99.90;;;;;;4962300;28;20371;-86
2022/03/25 05:47:52;;;;;;;175.20;33.75;;;2.40;99.90;;;;;;4961120;28;20483;-84
2022/03/25 05:50:19;;;;;;;177.52;33.55;;;2.40;99.90;;;;;;4962801;28;20053;-84
2022/03/25 05:52:44;;;;;;;180.10;33.13;;;2.40;99.90;;;;;;4978261;28;20494;-86
2022/03/25 05:55:13;;;;;;;161.90;32.53;;;2.40;99.90;;;;;;4961798;28;20043;-87
2022/03/25 05:57:39;;;;;;;140.93;31.65;;;2.40;99.90;;;;;;4978595;28;20046;-85
2022/03/25 06:00:08;;;;;;;182.52;31.83;;;2.40;99.90;;;;;;4976972;28;20061;-86
2022/03/25 06:02:35;;;;;;;207.60;31.27;;;2.40;99.90;;;;;;4977766;28;20112;-86
2022/03/25 06:05:00;;;;;;;146.32;29.88;;;2.40;99.90;;;;;;4978104;28;20042;-86
2022/03/25 06:07:33;;;;;;;243.35;31.05;;;2.40;99.90;;;;;;4978299;28;20053;-86
2022/03/25 06:09:59;;;;;;;187.68;31.15;;;2.40;99.90;;;;;;4962655;28;20046;-85
2022/03/25 06:12:24;;;;;;;178.95;30.98;;;2.40;99.90;;;;;;4962159;28;20053;-85
2022/03/25 06:14:50;;;;;;;252.40;32.53;;;2.40;99.90;;;;;;4960256;28;20077;-85
2022/03/25 06:17:15;;;;;;;272.08;32.40;;;2.40;99.90;;;;;;4976823;28;20051;-87
2022/03/25 06:19:41;;;;;;;283.85;31.25;;;2.50;99.90;;;;;;4962608;28;20085;-86
2022/03/25 06:22:07;;;;;;;250.40;34.17;;;2.50;99.90;;;;;;4995871;28;20424;-80
2022/03/25 06:24:33;;;;;;;163.90;31.17;;;2.50;99.90;;;;;;4977961;28;20038;-86
2022/03/25 06:26:59;;;;;;;173.60;31.35;;;2.50;99.90;;;;;;4978373;28;20045;-86
2022/03/25 06:29:24;;;;;;;124.75;29.55;;;2.50;99.90;;;;;;4962207;28;20045;-87
2022/03/25 06:31:51;;;;;;;117.30;30.50;;;2.40;99.90;;;;;;4977827;28;20109;-86
2022/03/25 06:37:49;;;;;;;94.90;30.58;;;2.50;99.90;;;;;;4979751;28;20049;-84
2022/03/25 06:44:24;;;;;;;;;;;;;;;;;;;;;
2022/03/25 06:47:03;;;;;;;81.10;31.43;;;2.50;99.90;;;;;;4976665;28;20104;-86
2022/03/25 06:49:41;;;;;;;61.97;29.80;;;2.60;99.90;;;;;;4960334;28;20289;-87
2022/03/25 06:52:07;;;;;;;85.50;32.30;;;2.60;99.90;;;;;;4976499;28;20046;-87
2022/03/25 06:57:52;;;;;;;71.50;30.83;;;2.70;99.90;;;;;;4943448;28;20553;-87
2022/03/25 07:00:39;;;;;;;61.13;28.70;;;2.80;99.90;;;;;;4960533;28;20054;-89
2022/03/25 07:03:58;;;;;;;81.07;31.77;;;2.80;99.90;;;;;;4948449;28;20145;-86
2022/03/25 07:06:24;;;;;;;249.13;48.63;;;2.90;99.90;;;;;;4922746;29;20058;-88
2022/03/25 07:08:55;;;;;;;117.63;35.58;;;3.00;99.90;;;;;;4943136;28;20054;-86
2022/03/25 07:11:22;;;;;;;100.10;34.42;;;3.10;99.90;;;;;;4978262;28;20373;-87
2022/03/25 07:13:47;;;;;;;80.95;33.45;;;3.10;99.90;;;;;;4965352;28;20101;-86
2022/03/25 07:16:14;;;;;;;70.00;32.15;;;3.20;99.90;;;;;;4964633;28;20046;-86
2022/03/25 07:18:39;;;;;;;66.57;31.67;;;3.30;99.90;;;;;;4964651;28;20093;-87
2022/03/25 07:21:16;;;;;;;74.85;32.83;;;3.40;99.90;;;;;;4964786;28;20042;-87
2022/03/25 07:23:42;;;;;;;80.93;35.95;;;3.50;99.90;;;;;;5001504;28;20108;-88
2022/03/25 07:26:08;;;;;;;87.32;36.15;;;3.70;99.90;;;;;;4976544;28;20042;-86
2022/03/25 07:28:34;;;;;;;91.85;37.65;;;3.70;99.90;;;;;;4977488;28;20410;-86
2022/03/25 07:31:00;;;;;;;531.33;83.25;;;3.90;99.90;;;;;;4982267;28;20065;-86
2022/03/25 07:33:25;;;;;;;210.90;48.25;;;4.00;99.90;;;;;;4983507;28;20057;-87
2022/03/25 07:35:51;;;;;;;107.63;39.67;;;4.00;99.90;;;;;;4972737;28;20053;-86
2022/03/25 07:38:17;;;;;;;99.90;38.92;;;4.10;99.90;;;;;;4982546;28;20088;-87
2022/03/25 07:40:42;;;;;;;92.18;39.67;;;4.30;99.90;;;;;;4966278;28;20431;-87
2022/03/25 07:43:11;;;;;;;94.20;38.42;;;4.40;99.90;;;;;;4965855;28;20078;-87
2022/03/25 07:45:42;;;;;;;87.65;39.60;;;4.50;99.90;;;;;;4965375;28;20068;-86
2022/03/25 07:48:11;;;;;;;86.75;37.65;;;4.60;99.90;;;;;;4980840;28;20121;-87
2022/03/25 07:50:42;;;;;;;87.90;36.50;;;4.70;99.90;;;;;;4980412;28;20048;-87
2022/03/25 07:53:11;;;;;;;88.22;37.38;;;4.90;99.90;;;;;;4980857;28;20466;-87
2022/03/25 07:55:36;;;;;;;74.10;34.40;;;5.00;99.90;;;;;;4980013;28;20133;-86
2022/03/25 07:58:06;;;;;;;77.88;34.13;;;5.10;99.90;;;;;;4962594;28;20098;-88
2022/03/25 08:00:35;;;;;;;74.63;34.33;;;5.30;99.90;;;;;;4964739;28;20086;-87
2022/03/25 08:03:01;;;;;;;71.78;33.78;;;5.40;99.90;;;;;;4980082;28;20083;-88
2022/03/25 08:05:27;;;;;;;68.55;31.42;;;5.60;99.90;;;;;;4980341;28;20097;-86
2022/03/25 08:08:06;;;;;;;;;;;;;;;;;;;;;
2022/03/25 08:10:36;;;;;;;58.58;29.40;;;5.90;99.90;;;;;;4997509;28;20038;-87
2022/03/25 08:13:02;;;;;;;65.47;29.73;;;6.00;99.90;;;;;;4964016;28;20049;-86
2022/03/25 08:15:35;;;;;;;59.35;28.27;;;6.20;99.90;;;;;;4962598;28;20049;-86
2022/03/25 08:18:02;;;;;;;51.17;26.50;;;6.30;99.90;;;;;;4963423;28;20465;-87
2022/03/25 08:20:43;;;;;;;57.55;26.77;;;6.50;99.90;;;;;;4963970;28;20117;-87
2022/03/25 08:27:48;;;;;;;55.22;26.05;;;6.60;99.90;;;;;;4978622;28;20038;-87
2022/03/25 08:28:45;;;;;;;56.35;24.38;;;7.00;99.90;;;;;;4979924;28;20030;-88
2022/03/25 08:31:11;;;;;;;47.88;25.20;;;7.10;99.90;;;;;;4964507;28;20529;-87
2022/03/25 08:33:36;;;;;;;44.60;23.00;;;7.30;99.90;;;;;;4979696;28;20050;-87
2022/03/25 08:36:02;;;;;;;45.13;22.50;;;7.40;99.90;;;;;;4978693;28;20516;-87
2022/03/25 08:38:28;;;;;;;41.65;21.15;;;7.60;99.90;;;;;;4979484;28;20057;-87
2022/03/25 08:40:54;;;;;;;43.83;21.73;;;7.80;99.90;;;;;;4996294;28;20110;-87
2022/03/25 08:43:22;;;;;;;43.45;21.30;;;7.90;99.90;;;;;;4963461;28;20038;-86
2022/03/25 08:46:03;;;;;;;;;;;;;;;;;;;;;
2022/03/25 08:48:30;;;;;;;41.25;20.90;;;8.20;99.90;;;;;;4978715;28;20446;-87
2022/03/25 08:50:59;;;;;;;42.30;20.70;;;8.40;99.90;;;;;;4997258;28;20450;-86
2022/03/25 08:53:30;;;;;;;41.55;20.88;;;8.60;99.90;;;;;;4965469;28;20046;-86
2022/03/25 08:55:56;;;;;;;37.65;19.58;;;8.80;99.90;;;;;;4962664;28;20054;-86
2022/03/25 08:58:27;;;;;;;38.40;18.75;;;9.00;99.90;;;;;;4962745;28;20042;-87
2022/03/25 09:01:08;;;;;;;38.13;19.17;;;9.20;99.90;;;;;;4962076;28;20038;-88
2022/03/25 09:03:44;;;;;;;;;;;;;;;;;;;;;
2022/03/25 09:06:12;;;;;;;35.22;16.70;;;9.60;99.90;;;;;;4977882;28;20046;-88
2022/03/25 09:08:38;;;;;;;32.83;16.25;;;9.70;99.90;;;;;;4962645;28;20366;-87
2022/03/25 09:11:04;;;;;;;30.38;16.63;;;9.80;99.90;;;;;;4978337;28;20101;-87
2022/03/25 09:13:29;;;;;;;33.30;16.25;;;9.90;99.90;;;;;;4978545;28;20403;-86
2022/03/25 09:15:55;;;;;;;34.88;16.65;;;10.00;99.90;;;;;;4995994;28;20386;-86
2022/03/25 09:18:23;;;;;;;34.70;16.45;;;10.20;99.90;;;;;;4977858;28;20205;-86
2022/03/25 09:20:52;;;;;;;34.30;17.40;;;10.40;99.90;;;;;;4978048;28;20046;-87
2022/03/25 09:23:18;;;;;;;43.35;18.15;;;10.70;99.90;;;;;;4961839;28;20124;-87
2022/03/25 09:25:44;;;;;;;28.60;16.10;;;10.90;99.90;;;;;;4978228;28;20057;-87
2022/03/25 09:28:19;;;;;;;36.47;16.98;;;11.20;99.90;;;;;;4964661;28;20092;-87
2022/03/25 09:30:45;;;;;;;31.27;16.27;;;11.50;99.90;;;;;;4963042;28;20050;-87
2022/03/25 09:33:10;;;;;;;32.47;16.75;;;11.60;99.90;;;;;;4978093;28;20038;-86
2022/03/25 09:35:38;;;;;;;32.42;17.40;;;11.80;99.90;;;;;;4961715;28;20046;-86
2022/03/25 09:38:04;;;;;;;40.05;19.45;;;12.00;99.90;;;;;;4961751;28;20135;-86
2022/03/25 09:40:30;;;;;;;35.60;18.70;;;12.10;99.90;;;;;;4962674;28;20049;-86
2022/03/25 09:42:57;;;;;;;34.10;18.75;;;12.20;99.90;;;;;;4962010;28;20124;-86
2022/03/25 09:45:24;;;;;;;41.45;19.27;;;12.30;99.90;;;;;;4978263;28;20162;-86
2022/03/25 09:47:50;;;;;;;36.42;19.17;;;12.40;99.90;;;;;;4976807;28;20039;-87
2022/03/25 09:50:21;;;;;;;37.95;19.30;;;12.60;99.90;;;;;;4962528;28;20088;-86
2022/03/25 09:52:51;;;;;;;38.78;19.55;;;12.80;99.90;;;;;;4978804;28;20074;-85
2022/03/25 09:55:17;;;;;;;39.50;19.73;;;13.00;99.90;;;;;;4995464;28;20125;-84
2022/03/25 09:57:43;;;;;;;33.67;18.20;;;13.20;99.90;;;;;;4977670;28;20112;-84
2022/03/25 10:00:14;;;;;;;40.53;20.27;;;13.40;99.90;;;;;;4995428;28;20031;-84
2022/03/25 10:02:40;;;;;;;37.88;18.73;;;13.60;99.90;;;;;;4994514;28;20042;-84
2022/03/25 10:05:16;;;;;;;35.40;19.52;;;13.80;99.90;;;;;;4961469;28;20054;-86
2022/03/25 10:07:48;;;;;;;36.35;18.98;;;13.90;99.90;;;;;;4961523;28;20513;-86
2022/03/25 10:10:23;;;;;;;35.78;18.70;;;14.10;99.90;;;;;;4977836;28;20057;-86
2022/03/25 10:13:00;;;;;;;32.88;18.27;;;14.20;99.90;;;;;;4977860;28;20569;-86
2022/03/25 10:15:28;;;;;;;38.22;20.38;;;14.30;99.90;;;;;;4961276;28;20047;-86
2022/03/25 10:17:56;;;;;;;34.63;19.15;;;14.40;99.90;;;;;;4976691;28;20046;-85
2022/03/25 10:20:24;;;;;;;33.65;18.13;;;14.50;99.90;;;;;;4961087;28;20042;-85
2022/03/25 10:23:01;;;;;;;31.90;17.98;;;14.70;99.90;;;;;;4994862;28;20044;-86
2022/03/25 10:25:41;;;;;;;33.10;17.45;;;14.80;99.90;;;;;;4977479;28;20118;-86
2022/03/25 10:28:41;;;;;;;33.58;17.55;;;14.90;99.90;;;;;;4962477;28;20038;-85
2022/03/25 10:31:11;;;;;;;31.55;17.30;;;15.10;99.90;;;;;;4961499;28;20045;-86
2022/03/25 10:34:19;;;;;;;31.55;16.65;;;15.20;99.90;;;;;;4977492;28;20451;-85
2022/03/25 10:37:00;;;;;;;30.15;16.83;;;15.30;99.20;;;;;;4918875;29;20127;-87
2022/03/25 10:39:29;;;;;;;29.40;15.50;;;15.40;99.90;;;;;;4919085;29;20143;-86
2022/03/25 10:50:34;;;;;;;;;;;;;;;;;;;;;
2022/03/25 10:57:34;;;;;;;;;;;;;;;;;;;;;
2022/03/25 11:12:07;;;;;;;29.57;15.60;;;16.80;84.00;;;;;;4985480;28;20057;-86
2022/03/25 11:23:11;;;;;;;;;;;;;;;;;;;;;
2022/03/25 11:25:58;;;;;;;27.40;14.82;;;17.60;80.70;;;;;;4948516;28;20121;-74
2022/03/25 11:28:32;;;;;;;35.67;15.93;;;17.90;79.50;;;;;;4994736;28;20486;-86
2022/03/25 11:36:43;;;;;;;33.00;16.42;;;18.20;76.70;;;;;;4996578;28;19929;-87
2022/03/25 11:43:07;;;;;;;;;;;;;;;;;;;;;
2022/03/25 11:46:56;;;;;;;;;;;;;;;;;;;;;
2022/03/25 11:53:26;;;;;;;;;;;;;;;;;;;;;
2022/03/25 12:11:04;;;;;;;30.60;16.67;;;19.40;63.50;;;;;;4925325;29;20468;-87
2022/03/25 12:13:55;;;;;;;31.25;16.83;;;19.60;62.80;;;;;;4902265;29;20051;-86
2022/03/25 12:17:16;;;;;;;;;;;;;;;;;;;;;
2022/03/25 12:25:20;;;;;;;;;;;19.70;60.70;;;;;;5110768;22;20065;-84
2022/03/25 12:27:46;;;;;;;26.30;15.52;;;19.90;61.80;;;;;;5002457;28;19948;-76
2022/03/25 12:30:14;;;;;;;32.90;15.85;;;19.90;59.10;;;;;;5022004;28;20044;-82
2022/03/25 12:32:39;;;;;;;31.40;15.68;;;19.90;59.60;;;;;;4993423;28;20070;-88
2022/03/25 12:35:08;;;;;;;25.67;14.88;;;20.00;58.80;;;;;;4997440;28;20026;-87
2022/03/25 12:37:34;;;;;;;26.67;14.82;;;20.10;60.30;;;;;;4980781;28;20033;-87
2022/03/25 12:40:17;;;;;;;24.20;13.48;;;20.30;59.60;;;;;;5015794;28;20455;-83
2022/03/25 12:42:43;;;;;;;24.95;14.15;;;20.50;58.40;;;;;;5005556;28;20038;-83
2022/03/25 12:45:10;;;;;;;25.60;13.27;;;20.70;57.20;;;;;;4997701;28;20121;-78
2022/03/25 12:47:43;;;;;;;21.58;13.57;;;20.70;56.60;;;;;;4978465;28;20086;-82
2022/03/25 12:50:14;;;;;;;24.58;13.15;;;20.80;56.30;;;;;;4979087;28;20041;-83
2022/03/25 12:52:40;;;;;;;23.20;12.63;;;20.90;55.60;;;;;;4995713;28;20050;-82
2022/03/25 12:55:11;;;;;;;22.38;11.13;;;21.00;53.40;;;;;;4995972;28;20065;-84
2022/03/25 12:57:38;;;;;;;19.90;10.40;;;21.00;53.50;;;;;;4963445;28;20042;-88
2022/03/25 13:00:08;;;;;;;17.52;9.57;;;20.90;52.30;;;;;;4964018;28;20077;-87
2022/03/25 13:26:09;;;;;;;21.40;10.98;;;23.00;46.10;;;;;;4945319;28;20058;-87
2022/03/25 13:46:47;;;;;;;21.98;11.65;;;22.10;45.60;;;;;;5017072;28;20044;-88
2022/03/25 13:49:57;;;;;;;23.60;10.55;;;22.20;45.80;;;;;;4982961;28;20109;-86
2022/03/25 13:55:19;;;;;;;33.60;13.43;;;22.20;45.00;;;;;;5017772;28;20494;-86
2022/03/25 13:57:58;;;;;;;22.05;12.07;;;22.10;45.60;;;;;;4999448;28;20514;-85
2022/03/25 14:00:35;;;;;;;21.77;12.30;;;22.20;45.10;;;;;;4980401;28;20040;-87
2022/03/25 14:03:04;;;;;;;23.02;13.95;;;22.30;44.40;;;;;;4978944;28;20050;-87
2022/03/25 14:05:42;;;;;;;30.42;13.18;;;22.30;44.50;;;;;;4963159;28;20093;-87
2022/03/25 14:08:12;;;;;;;25.88;12.68;;;22.10;44.30;;;;;;4963930;28;20034;-87
2022/03/25 14:10:58;;;;;;;22.98;12.55;;;22.00;45.10;;;;;;4963702;28;20423;-87
2022/03/25 14:13:23;;;;;;;26.65;13.05;;;22.00;44.90;;;;;;4979367;28;20070;-87
2022/03/25 14:15:49;;;;;;;22.52;12.13;;;22.00;45.40;;;;;;4979157;28;20043;-87
2022/03/25 14:18:22;;;;;;;22.45;11.82;;;22.00;46.00;;;;;;4963093;28;20507;-88
2022/03/25 14:21:00;;;;;;;27.80;12.68;;;22.30;45.50;;;;;;4963254;28;20083;-86
2022/03/25 14:23:25;;;;;;;23.25;12.50;;;22.40;45.10;;;;;;4966022;28;20112;-89
2022/03/25 14:25:52;;;;;;;23.25;12.20;;;22.40;44.60;;;;;;4982252;28;20046;-88
2022/03/25 14:28:20;;;;;;;23.00;10.63;;;22.50;44.30;;;;;;4982349;28;20038;-86
2022/03/25 14:30:45;;;;;;;19.67;10.45;;;22.50;43.60;;;;;;4981983;28;20050;-90
2022/03/25 14:33:11;;;;;;;20.45;10.38;;;22.70;43.50;;;;;;4965690;28;20048;-88
2022/03/25 14:35:37;;;;;;;18.80;10.40;;;22.50;43.00;;;;;;4965362;28;20074;-88
2022/03/25 14:38:02;;;;;;;21.05;9.77;;;22.50;42.70;;;;;;4964804;28;20554;-86
2022/03/25 14:40:28;;;;;;;21.95;9.52;;;22.30;42.50;;;;;;4998245;28;20042;-86
2022/03/25 14:42:55;;;;;;;23.27;10.85;;;22.10;42.30;;;;;;4964230;28;20158;-89
2022/03/25 14:45:23;;;;;;;20.20;11.23;;;22.10;42.90;;;;;;4964086;28;20463;-89
2022/03/25 14:47:54;;;;;;;21.40;13.25;;;22.20;43.30;;;;;;4965460;28;20089;-86
2022/03/25 14:50:20;;;;;;;24.50;13.07;;;22.10;43.30;;;;;;4980767;28;20128;-88
2022/03/25 14:52:46;;;;;;;22.88;12.98;;;21.80;43.40;;;;;;4965675;28;20094;-87
2022/03/25 14:55:19;;;;;;;22.75;12.07;;;21.70;44.40;;;;;;4966863;28;20042;-86
2022/03/25 14:57:45;;;;;;;21.23;12.30;;;21.80;45.10;;;;;;4983121;28;20089;-87
2022/03/25 15:00:11;;;;;;;25.80;12.50;;;21.90;45.20;;;;;;4982847;28;20049;-87
2022/03/25 15:02:37;;;;;;;21.73;13.02;;;22.00;44.00;;;;;;4966883;28;20462;-89
2022/03/25 15:05:03;;;;;;;23.40;12.82;;;22.10;43.60;;;;;;5000262;28;20035;-86
2022/03/25 15:07:29;;;;;;;21.83;12.35;;;21.90;42.50;;;;;;4966368;28;20042;-87
2022/03/25 15:09:55;;;;;;;25.88;13.93;;;21.80;43.90;;;;;;4966838;28;20042;-87
2022/03/25 15:12:20;;;;;;;27.05;13.85;;;21.50;43.90;;;;;;4966997;28;20046;-88
2022/03/25 15:14:46;;;;;;;29.75;14.75;;;21.50;43.40;;;;;;4982186;28;20086;-85
2022/03/25 15:17:13;;;;;;;22.60;13.15;;;21.30;43.50;;;;;;4982528;28;20042;-89
2022/03/25 15:19:39;;;;;;;20.33;12.88;;;21.40;43.90;;;;;;4999714;28;20042;-77
2022/03/25 15:22:05;;;;;;;27.02;12.98;;;21.30;43.50;;;;;;4997273;28;20062;-81
2022/03/25 15:24:31;;;;;;;25.83;13.40;;;21.30;43.40;;;;;;4980233;28;20042;-84
2022/03/25 15:26:57;;;;;;;26.13;13.82;;;21.20;43.70;;;;;;4981676;28;20437;-88
2022/03/25 15:34:51;;;;;;;20.63;13.02;;;20.90;44.20;;;;;;4999048;28;20046;-86
2022/03/25 15:37:16;;;;;;;24.90;12.55;;;21.00;44.50;;;;;;4965345;28;20379;-84
2022/03/25 15:40:00;;;;;;;25.60;12.85;;;21.00;44.40;;;;;;4998579;28;20045;-86
2022/03/25 15:42:27;;;;;;;26.42;13.00;;;21.10;43.80;;;;;;4999060;28;20038;-87
2022/03/25 15:44:57;;;;;;;22.73;11.68;;;21.00;43.40;;;;;;4964461;28;20049;-87
2022/03/25 15:47:23;;;;;;;21.17;11.77;;;21.00;42.90;;;;;;4980140;28;20061;-81
2022/03/25 15:49:48;;;;;;;23.67;12.38;;;20.90;42.80;;;;;;4963728;28;20081;-85
2022/03/25 15:52:16;;;;;;;24.83;11.05;;;20.80;42.60;;;;;;4965326;28;20046;-87
2022/03/25 15:54:43;;;;;;;21.38;10.57;;;20.70;42.30;;;;;;4981213;28;20038;-86
2022/03/25 15:57:11;;;;;;;28.58;11.70;;;20.60;42.30;;;;;;4964021;28;20161;-87
2022/03/25 16:02:57;;;;;;;21.60;9.50;;;20.60;42.60;;;;;;4962065;28;20049;-84
2022/03/25 16:05:24;;;;;;;23.60;9.85;;;20.60;42.80;;;;;;4964353;28;20035;-87
2022/03/25 16:07:52;;;;;;;22.27;10.05;;;20.70;43.00;;;;;;4965245;28;20046;-87
2022/03/25 16:10:19;;;;;;;23.55;9.63;;;20.70;43.10;;;;;;4966308;28;20064;-86
2022/03/25 16:12:46;;;;;;;25.70;9.82;;;20.70;43.20;;;;;;4964564;28;20049;-86
2022/03/25 16:15:47;;;;;;;23.63;10.15;;;20.60;44.30;;;;;;4980129;28;20049;-87
2022/03/25 16:18:13;;;;;;;16.80;9.10;;;20.80;45.00;;;;;;4955144;28;20058;-88
2022/03/25 16:20:39;;;;;;;24.40;10.27;;;21.00;44.80;;;;;;4982024;28;20073;-85
2022/03/25 16:23:06;;;;;;;21.92;9.20;;;21.10;44.90;;;;;;4980572;28;20060;-91
2022/03/25 16:25:32;;;;;;;18.17;9.52;;;21.10;45.50;;;;;;4979996;28;20042;-85
2022/03/25 16:28:03;;;;;;;25.95;11.90;;;21.10;45.20;;;;;;4979889;28;20092;-88
2022/03/25 16:30:33;;;;;;;26.63;13.65;;;21.00;45.80;;;;;;4980279;28;20054;-86
2022/03/25 16:33:00;;;;;;;28.52;13.60;;;20.90;46.50;;;;;;4980086;28;20050;-85
2022/03/25 16:35:26;;;;;;;26.40;14.70;;;20.90;47.20;;;;;;4980255;28;20046;-80
2022/03/25 16:37:52;;;;;;;32.38;15.25;;;20.60;47.90;;;;;;4996124;28;20050;-85
2022/03/25 16:40:20;;;;;;;31.75;15.65;;;20.40;48.70;;;;;;4962152;28;20034;-84
2022/03/25 16:42:49;;;;;;;27.80;14.70;;;20.00;49.10;;;;;;4995653;28;20390;-84
2022/03/25 16:45:15;;;;;;;26.33;14.77;;;19.70;49.80;;;;;;4977953;28;20054;-84
2022/03/25 16:47:45;;;;;;;26.42;14.32;;;19.40;50.40;;;;;;4996584;28;20049;-84
2022/03/25 16:50:10;;;;;;;38.45;14.52;;;19.30;50.90;;;;;;4978142;28;20038;-83
2022/03/25 16:52:39;;;;;;;29.27;13.82;;;19.10;50.90;;;;;;4962334;28;20451;-85
2022/03/25 16:55:07;;;;;;;25.80;13.52;;;18.90;51.00;;;;;;4978346;28;20501;-85
2022/03/25 16:57:33;;;;;;;25.23;13.30;;;18.70;51.50;;;;;;4962221;28;20081;-86
2022/03/25 16:59:59;;;;;;;30.40;13.73;;;18.50;52.70;;;;;;4962594;28;20505;-85
2022/03/25 17:02:25;;;;;;;30.98;13.38;;;18.20;53.00;;;;;;4978350;28;20050;-85
2022/03/25 17:04:50;;;;;;;22.98;12.93;;;18.00;53.30;;;;;;4962439;28;20072;-85
2022/03/25 17:07:16;;;;;;;29.55;13.00;;;17.80;54.00;;;;;;4995810;28;20034;-86
2022/03/25 17:09:42;;;;;;;27.98;12.00;;;17.70;54.70;;;;;;4978578;28;20043;-86
2022/03/25 17:12:09;;;;;;;30.58;13.40;;;17.40;55.40;;;;;;4962505;28;20101;-88
2022/03/25 17:14:34;;;;;;;26.65;12.55;;;17.30;55.90;;;;;;4978979;28;20061;-84
2022/03/25 17:17:00;;;;;;;32.17;13.88;;;17.10;56.90;;;;;;4997087;28;20035;-85
2022/03/25 17:19:26;;;;;;;29.17;13.93;;;16.90;57.70;;;;;;4963216;28;20049;-89
2022/03/25 17:27:12;;;;;;;31.65;15.02;;;16.50;60.80;;;;;;910501;26;20211;-88
2022/03/25 17:30:14;;;;;;;;;;;16.40;61.00;;;;;;4998837;28;20177;-90
2022/03/25 17:34:09;;;;;;;;;;;;;;;;;;;;;
2022/03/25 17:37:25;;;;;;;29.77;13.90;;;16.10;65.60;;;;;;4996442;28;20040;-89
2022/03/25 17:40:17;;;;;;;23.35;12.98;;;15.80;69.40;;;;;;4962833;28;20054;-89
2022/03/25 17:43:00;;;;;;;28.55;14.13;;;15.70;70.20;;;;;;5075087;22;20058;-88
2022/03/25 17:49:32;;;;;;;25.08;12.32;;;15.40;77.00;;;;;;4924616;29;20043;-89
2022/03/25 18:03:04;;;;;;;31.67;12.93;;;14.70;85.20;;;;;;4956509;29;20138;-89
2022/03/25 18:05:59;;;;;;;28.77;12.50;;;14.50;88.90;;;;;;4940368;29;20500;-90
2022/03/25 18:08:24;;;;;;;26.55;11.63;;;14.40;90.40;;;;;;4924049;29;20055;-83
2022/03/25 18:11:37;;;;;;;32.35;12.50;;;14.20;91.20;;;;;;4954809;29;20043;-89
2022/03/25 18:14:29;;;;;;;26.83;12.15;;;14.10;93.40;;;;;;4949154;28;20105;-88
2022/03/25 18:16:55;;;;;;;25.45;10.80;;;13.90;93.30;;;;;;4974068;28;20493;-90
2022/03/25 18:19:47;;;;;;;31.95;13.32;;;13.80;95.70;;;;;;4963383;28;20054;-89
2022/03/25 18:22:44;;;;;;;28.77;11.80;;;13.80;97.40;;;;;;4977899;28;20085;-90
2022/03/25 18:25:12;;;;;;;;;;;13.70;98.90;;;;;;4980611;28;20081;-89
2022/03/25 18:27:41;;;;;;;26.10;11.32;;;13.70;99.20;;;;;;4985112;28;19921;-90
2022/03/25 18:30:39;;;;;;;25.15;10.25;;;13.60;96.50;;;;;;5013020;28;20046;-88
2022/03/25 18:33:06;;;;;;;24.27;10.80;;;13.60;96.80;;;;;;4990887;28;20069;-88
2022/03/25 18:35:34;;;;;;;25.73;10.45;;;13.60;97.10;;;;;;4964862;28;20039;-88
2022/03/25 18:38:02;;;;;;;24.85;10.85;;;13.50;97.00;;;;;;4979872;28;20105;-90
2022/03/25 18:40:32;;;;;;;26.98;11.77;;;13.40;96.70;;;;;;4995108;28;20054;-90
2022/03/25 18:43:09;;;;;;;24.85;11.68;;;13.40;96.30;;;;;;4962609;28;20046;-89
2022/03/25 18:45:45;;;;;;;25.88;11.32;;;13.30;96.40;;;;;;4962808;28;20113;-90
2022/03/25 18:48:11;;;;;;;28.25;11.05;;;13.20;95.00;;;;;;4978964;28;20042;-86
2022/03/25 18:53:10;;;;;;;28.23;11.13;;;13.20;93.50;;;;;;4995150;28;20047;-88
2022/03/25 18:59:35;;;;;;;25.67;10.90;;;13.10;91.40;;;;;;4937012;29;20058;-91
2022/03/25 19:02:01;;;;;;;24.50;12.23;;;13.00;91.20;;;;;;4944150;28;20051;-89
2022/03/25 19:04:27;;;;;;;22.25;12.13;;;12.90;90.90;;;;;;4963808;28;20046;-89
2022/03/25 19:06:52;;;;;;;26.42;10.82;;;12.80;90.50;;;;;;4963093;28;20550;-89
2022/03/25 19:09:20;;;;;;;27.60;11.23;;;12.70;90.60;;;;;;4965892;28;20053;-91
2022/03/25 19:11:46;;;;;;;23.88;10.35;;;12.70;90.40;;;;;;4982298;28;20077;-90
2022/03/25 19:14:13;;;;;;;29.58;12.20;;;12.70;89.90;;;;;;4966029;28;20039;-89
2022/03/25 19:16:39;;;;;;;27.05;11.70;;;12.70;88.60;;;;;;4966326;28;20042;-90
2022/03/25 19:19:06;;;;;;;28.60;10.18;;;12.60;87.40;;;;;;4967410;28;20526;-90
2022/03/25 19:21:33;;;;;;;24.15;9.75;;;12.50;86.90;;;;;;4966896;28;20042;-91
2022/03/25 19:24:00;;;;;;;24.75;10.48;;;12.40;86.90;;;;;;4967522;28;20207;-89
2022/03/25 19:26:27;;;;;;;21.38;10.13;;;12.30;86.40;;;;;;4967209;28;20137;-90
2022/03/25 19:28:53;;;;;;;23.65;10.93;;;12.30;85.20;;;;;;4982962;28;20046;-87
2022/03/25 19:31:20;;;;;;;28.52;11.93;;;12.20;84.60;;;;;;4981841;28;20557;-89
2022/03/25 19:33:46;;;;;;;22.90;11.70;;;12.10;84.60;;;;;;4983635;28;20061;-89
2022/03/25 19:36:12;;;;;;;23.15;11.30;;;12.00;83.80;;;;;;4966382;28;20478;-90
2022/03/25 19:38:38;;;;;;;23.05;10.93;;;11.90;83.00;;;;;;4981856;28;20084;-90
2022/03/25 19:41:30;;;;;;;;;;;;;;;;;;;;;
2022/03/25 19:44:13;;;;;;;27.70;10.63;;;11.70;83.10;;;;;;4999114;28;20533;-88